createdAt,value
2018-07-10T00:00:16.984Z,0.00
2018-07-10T00:01:16.952Z,0.00
2018-07-10T00:02:16.837Z,0.00
2018-07-10T00:03:16.831Z,0.00
2018-07-10T00:04:16.817Z,0.00
2018-07-10T00:05:30.467Z,0.00
2018-07-10T00:06:16.963Z,0.00
2018-07-10T00:07:26.518Z,0.00
2018-07-10T00:09:29.637Z,0.00
2018-07-10T00:10:28.826Z,0.00
2018-07-10T00:11:38.269Z,0.00
2018-07-10T00:13:46.860Z,0.00
2018-07-10T00:14:57.352Z,0.00
2018-07-10T00:15:56.165Z,0.00
2018-07-10T00:18:23.227Z,0.00
2018-07-10T00:19:23.314Z,0.00
2018-07-10T00:21:38.624Z,0.00
2018-07-10T00:22:53.472Z,0.00
2018-07-10T00:23:38.645Z,0.00
2018-07-10T00:24:38.515Z,0.00
2018-07-10T00:25:38.844Z,0.00
2018-07-10T00:26:38.361Z,0.00
2018-07-10T00:27:38.385Z,0.00
2018-07-10T00:28:38.371Z,0.00
2018-07-10T00:29:38.317Z,0.00
2018-07-10T00:30:38.347Z,0.00
2018-07-10T00:31:38.335Z,0.00
2018-07-10T00:32:38.303Z,0.00
2018-07-10T00:33:38.315Z,0.00
2018-07-10T00:34:38.345Z,0.00
2018-07-10T00:35:38.332Z,0.00
2018-07-10T00:36:38.287Z,0.00
2018-07-10T00:37:38.304Z,0.00
2018-07-10T00:38:38.262Z,0.00
2018-07-10T00:39:38.177Z,0.00
2018-07-10T00:40:38.334Z,0.00
2018-07-10T00:41:38.344Z,0.00
2018-07-10T00:42:38.198Z,0.00
2018-07-10T00:43:38.155Z,0.00
2018-07-10T00:44:38.166Z,0.00
2018-07-10T00:45:38.118Z,0.00
2018-07-10T00:46:38.152Z,0.00
2018-07-10T00:48:59.946Z,0.00
2018-07-10T00:51:12.174Z,0.00
2018-07-10T00:52:11.956Z,0.00
2018-07-10T00:54:57.514Z,0.00
2018-07-10T00:55:56.864Z,0.00
2018-07-10T00:56:57.109Z,0.00
2018-07-10T00:57:56.705Z,0.00
2018-07-10T00:58:56.725Z,0.00
2018-07-10T00:59:56.710Z,0.00
2018-07-10T01:00:56.705Z,0.00
2018-07-10T01:01:56.740Z,0.00
2018-07-10T01:02:56.706Z,0.00
2018-07-10T01:03:56.629Z,0.00
2018-07-10T01:04:56.636Z,0.00
2018-07-10T01:06:11.483Z,0.00
2018-07-10T01:06:57.019Z,0.00
2018-07-10T01:07:56.885Z,0.00
2018-07-10T01:08:56.980Z,0.00
2018-07-10T01:09:56.654Z,0.00
2018-07-10T01:10:56.549Z,0.00
2018-07-10T01:11:56.545Z,0.00
2018-07-10T01:12:56.524Z,0.00
2018-07-10T01:13:56.514Z,0.00
2018-07-10T01:14:56.546Z,0.00
2018-07-10T01:16:11.670Z,0.00
2018-07-10T01:16:56.789Z,0.00
2018-07-10T01:18:09.143Z,0.00
2018-07-10T01:18:56.557Z,0.00
2018-07-10T01:19:56.977Z,0.00
2018-07-10T01:20:56.531Z,0.00
2018-07-10T01:22:12.171Z,0.00
2018-07-10T01:22:56.760Z,0.00
2018-07-10T01:23:56.526Z,0.00
2018-07-10T01:26:14.499Z,0.00
2018-07-10T01:27:14.398Z,0.00
2018-07-10T01:28:14.291Z,0.00
2018-07-10T01:30:28.371Z,0.00
2018-07-10T01:31:28.169Z,0.00
2018-07-10T01:32:28.320Z,0.00
2018-07-10T01:33:42.424Z,0.00
2018-07-10T01:34:28.419Z,0.00
2018-07-10T01:35:28.150Z,0.00
2018-07-10T01:38:40.524Z,0.00
2018-07-10T01:39:40.589Z,0.00
2018-07-10T01:40:40.759Z,0.00
2018-07-10T01:41:40.405Z,0.00
2018-07-10T01:42:40.360Z,0.00
2018-07-10T01:43:53.926Z,0.00
2018-07-10T01:44:52.213Z,0.00
2018-07-10T01:45:40.525Z,0.00
2018-07-10T01:46:50.531Z,0.00
2018-07-10T01:47:41.306Z,0.00
2018-07-10T01:48:41.260Z,0.00
2018-07-10T01:49:41.123Z,0.00
2018-07-10T01:50:40.301Z,0.00
2018-07-10T01:51:40.280Z,0.00
2018-07-10T01:53:59.653Z,0.00
2018-07-10T01:54:59.413Z,0.00
2018-07-10T01:55:59.323Z,0.00
2018-07-10T01:56:59.546Z,0.00
2018-07-10T01:57:59.151Z,0.00
2018-07-10T02:00:33.036Z,0.00
2018-07-10T02:01:32.583Z,0.00
2018-07-10T02:02:33.193Z,0.00
2018-07-10T02:03:32.514Z,0.00
2018-07-10T02:04:32.468Z,0.00
2018-07-10T02:05:32.451Z,0.00
2018-07-10T02:06:32.438Z,0.00
2018-07-10T02:07:32.484Z,0.00
2018-07-10T02:08:32.490Z,0.00
2018-07-10T02:09:32.428Z,0.00
2018-07-10T02:10:32.496Z,0.00
2018-07-10T02:12:54.235Z,0.00
2018-07-10T02:13:54.122Z,0.00
2018-07-10T02:15:12.264Z,0.00
2018-07-10T02:15:54.189Z,0.00
2018-07-10T02:16:54.421Z,0.00
2018-07-10T02:17:53.900Z,0.00
2018-07-10T02:18:53.913Z,0.00
2018-07-10T02:19:53.926Z,0.00
2018-07-10T02:20:53.889Z,0.00
2018-07-10T02:21:54.006Z,0.00
2018-07-10T02:24:58.455Z,0.00
2018-07-10T02:25:57.981Z,0.00
2018-07-10T02:26:57.954Z,0.00
2018-07-10T02:27:57.957Z,0.00
2018-07-10T02:28:57.912Z,0.00
2018-07-10T02:29:57.940Z,0.00
2018-07-10T02:30:57.897Z,0.00
2018-07-10T02:31:57.891Z,0.00
2018-07-10T02:32:57.947Z,0.00
2018-07-10T02:33:57.872Z,0.00
2018-07-10T02:34:57.941Z,0.00
2018-07-10T02:35:57.854Z,0.00
2018-07-10T02:38:53.862Z,0.00
2018-07-10T02:39:53.661Z,0.00
2018-07-10T02:40:53.520Z,0.00
2018-07-10T02:41:53.335Z,0.00
2018-07-10T02:42:53.283Z,0.00
2018-07-10T02:43:53.327Z,0.00
2018-07-10T02:44:53.307Z,0.00
2018-07-10T02:45:53.271Z,4.00
2018-07-10T02:46:53.524Z,4.00
2018-07-10T02:47:53.222Z,4.00
2018-07-10T02:48:53.214Z,4.00
2018-07-10T02:49:53.247Z,4.00
2018-07-10T02:51:02.591Z,4.00
2018-07-10T02:51:53.322Z,4.00
2018-07-10T02:52:53.402Z,8.00
2018-07-10T02:53:53.529Z,8.00
2018-07-10T02:56:17.384Z,4.00
2018-07-10T02:57:17.152Z,8.00
2018-07-10T02:58:17.516Z,8.00
2018-07-10T02:59:17.048Z,8.00
2018-07-10T03:00:17.154Z,8.00
2018-07-10T03:01:17.043Z,8.00
2018-07-10T03:02:17.019Z,8.00
2018-07-10T03:04:37.679Z,12.00
2018-07-10T03:05:37.795Z,16.00
2018-07-10T03:06:37.469Z,24.00
2018-07-10T03:07:37.453Z,24.00
2018-07-10T03:08:37.468Z,28.00
2018-07-10T03:10:57.147Z,40.00
2018-07-10T03:13:36.860Z,56.00
2018-07-10T03:14:36.243Z,64.00
2018-07-10T03:15:36.662Z,68.00
2018-07-10T03:16:36.079Z,76.00
2018-07-10T03:17:36.020Z,80.00
2018-07-10T03:18:36.078Z,76.00
2018-07-10T03:19:54.934Z,80.00
2018-07-10T03:20:36.745Z,100.00
2018-07-10T03:21:35.983Z,120.00
2018-07-10T03:24:06.722Z,120.00
2018-07-10T03:25:17.209Z,128.00
2018-07-10T03:26:16.946Z,136.00
2018-07-10T03:27:06.558Z,152.00
2018-07-10T03:28:06.672Z,160.00
2018-07-10T03:29:06.727Z,156.00
2018-07-10T03:30:06.441Z,144.00
2018-07-10T03:31:06.430Z,128.00
2018-07-10T03:33:27.033Z,160.00
2018-07-10T03:34:26.489Z,192.00
2018-07-10T03:35:26.662Z,232.00
2018-07-10T03:36:26.411Z,300.00
2018-07-10T03:37:37.355Z,368.00
2018-07-10T03:39:44.564Z,436.00
2018-07-10T03:40:44.416Z,388.00
2018-07-10T03:43:14.073Z,172.00
2018-07-10T03:45:26.885Z,184.00
2018-07-10T03:47:44.983Z,224.00
2018-07-10T03:48:44.736Z,216.00
2018-07-10T03:49:56.100Z,212.00
2018-07-10T03:50:45.159Z,208.00
2018-07-10T03:51:45.155Z,208.00
2018-07-10T03:52:44.781Z,208.00
2018-07-10T03:53:44.638Z,208.00
2018-07-10T03:54:44.615Z,216.00
2018-07-10T03:55:44.614Z,244.00
2018-07-10T03:56:44.657Z,272.00
2018-07-10T03:57:44.649Z,292.00
2018-07-10T03:58:44.569Z,320.00
2018-07-10T03:59:44.697Z,308.00
2018-07-10T04:00:44.703Z,264.00
2018-07-10T04:01:44.629Z,248.00
2018-07-10T04:02:44.554Z,260.00
2018-07-10T04:03:44.517Z,304.00
2018-07-10T04:04:51.996Z,380.00
2018-07-10T04:05:44.473Z,384.00
2018-07-10T04:06:44.463Z,304.00
2018-07-10T04:07:44.430Z,236.00
2018-07-10T04:08:44.435Z,204.00
2018-07-10T04:09:44.404Z,184.00
2018-07-10T04:10:44.394Z,180.00
2018-07-10T04:11:44.400Z,196.00
2018-07-10T04:12:44.373Z,224.00
2018-07-10T04:13:44.362Z,252.00
2018-07-10T04:14:44.358Z,256.00
2018-07-10T04:15:44.336Z,276.00
2018-07-10T04:16:44.337Z,304.00
2018-07-10T04:17:44.367Z,380.00
2018-07-10T04:18:44.306Z,496.00
2018-07-10T04:19:44.293Z,540.00
2018-07-10T04:20:44.284Z,516.00
2018-07-10T04:21:44.310Z,512.00
2018-07-10T04:22:44.257Z,544.00
2018-07-10T04:23:44.246Z,552.00
2018-07-10T04:24:44.236Z,516.00
2018-07-10T04:25:44.224Z,464.00
2018-07-10T04:26:44.257Z,412.00
2018-07-10T04:27:44.223Z,400.00
2018-07-10T04:28:44.190Z,412.00
2018-07-10T04:29:44.214Z,348.00
2018-07-10T04:30:44.175Z,268.00
2018-07-10T04:31:44.156Z,228.00
2018-07-10T04:32:44.161Z,180.00
2018-07-10T04:33:44.142Z,120.00
2018-07-10T04:34:44.127Z,100.00
2018-07-10T04:35:44.114Z,128.00
2018-07-10T04:36:44.102Z,172.00
2018-07-10T04:37:44.109Z,276.00
2018-07-10T04:38:44.089Z,340.00
2018-07-10T04:39:44.069Z,260.00
2018-07-10T04:40:44.058Z,224.00
2018-07-10T04:41:44.053Z,252.00
2018-07-10T04:42:44.069Z,392.00
2018-07-10T04:43:44.038Z,548.00
2018-07-10T04:44:44.013Z,536.00
2018-07-10T04:45:44.002Z,396.00
2018-07-10T04:46:43.989Z,332.00
2018-07-10T04:47:44.022Z,324.00
2018-07-10T04:48:43.987Z,292.00
2018-07-10T04:49:43.956Z,300.00
2018-07-10T04:50:43.945Z,332.00
2018-07-10T04:51:43.942Z,412.00
2018-07-10T04:52:43.934Z,576.00
2018-07-10T04:53:43.922Z,628.00
2018-07-10T04:54:43.899Z,636.00
2018-07-10T04:55:43.893Z,700.00
2018-07-10T04:56:43.880Z,820.00
2018-07-10T04:57:43.865Z,1020.00
2018-07-10T04:58:43.865Z,1168.00
2018-07-10T04:59:43.843Z,1256.00
2018-07-10T05:00:43.835Z,1216.00
2018-07-10T05:01:43.822Z,1100.00
2018-07-10T05:02:43.825Z,932.00
2018-07-10T05:03:43.813Z,880.00
2018-07-10T05:04:43.794Z,1012.00
2018-07-10T05:05:43.821Z,1260.00
2018-07-10T05:06:43.765Z,1312.00
2018-07-10T05:07:43.756Z,1124.00
2018-07-10T05:08:43.752Z,1112.00
2018-07-10T05:09:43.731Z,936.00
2018-07-10T05:10:43.721Z,676.00
2018-07-10T05:11:43.708Z,572.00
2018-07-10T05:12:43.701Z,816.00
2018-07-10T05:13:43.702Z,996.00
2018-07-10T05:14:43.677Z,796.00
2018-07-10T05:15:43.664Z,532.00
2018-07-10T05:16:43.661Z,528.00
2018-07-10T05:17:43.710Z,632.00
2018-07-10T05:18:43.642Z,612.00
2018-07-10T05:19:43.618Z,532.00
2018-07-10T05:20:43.608Z,640.00
2018-07-10T05:21:43.597Z,884.00
2018-07-10T05:22:43.583Z,888.00
2018-07-10T05:23:43.587Z,776.00
2018-07-10T05:24:43.566Z,780.00
2018-07-10T05:25:43.556Z,748.00
2018-07-10T05:26:43.553Z,660.00
2018-07-10T05:27:43.534Z,600.00
2018-07-10T05:28:43.562Z,492.00
2018-07-10T05:29:43.532Z,496.00
2018-07-10T05:30:43.513Z,592.00
2018-07-10T05:31:43.520Z,652.00
2018-07-10T05:32:43.474Z,676.00
2018-07-10T05:33:43.476Z,748.00
2018-07-10T05:34:43.465Z,844.00
2018-07-10T05:35:43.440Z,948.00
2018-07-10T05:36:43.451Z,1016.00
2018-07-10T05:37:43.418Z,1068.00
2018-07-10T05:38:43.461Z,1160.00
2018-07-10T05:39:43.491Z,1172.00
2018-07-10T05:40:43.383Z,1092.00
2018-07-10T05:41:43.373Z,1000.00
2018-07-10T05:42:43.363Z,856.00
2018-07-10T05:43:43.389Z,712.00
2018-07-10T05:44:43.355Z,588.00
2018-07-10T05:45:43.328Z,524.00
2018-07-10T05:46:43.315Z,504.00
2018-07-10T05:47:43.305Z,524.00
2018-07-10T05:48:43.296Z,560.00
2018-07-10T05:49:43.300Z,616.00
2018-07-10T05:50:43.271Z,776.00
2018-07-10T05:51:43.322Z,1008.00
2018-07-10T05:52:43.247Z,1136.00
2018-07-10T05:53:43.243Z,1064.00
2018-07-10T05:54:43.237Z,964.00
2018-07-10T05:55:43.236Z,856.00
2018-07-10T05:56:43.206Z,848.00
2018-07-10T05:57:43.193Z,884.00
2018-07-10T05:58:43.192Z,860.00
2018-07-10T05:59:43.184Z,944.00
2018-07-10T06:00:43.165Z,1236.00
2018-07-10T06:01:43.145Z,1684.00
2018-07-10T06:02:43.137Z,2032.00
2018-07-10T06:03:43.125Z,2228.00
2018-07-10T06:04:43.217Z,2324.00
2018-07-10T06:05:43.101Z,2120.00
2018-07-10T06:06:43.109Z,1808.00
2018-07-10T06:07:43.080Z,1556.00
2018-07-10T06:08:43.069Z,1416.00
2018-07-10T06:09:43.068Z,1316.00
2018-07-10T06:10:43.050Z,1260.00
2018-07-10T06:11:43.034Z,1208.00
2018-07-10T06:12:43.023Z,1052.00
2018-07-10T06:13:43.015Z,1000.00
2018-07-10T06:14:43.020Z,1136.00
2018-07-10T06:15:42.987Z,1476.00
2018-07-10T06:16:42.989Z,1748.00
2018-07-10T06:17:42.977Z,1836.00
2018-07-10T06:18:42.964Z,2000.00
2018-07-10T06:19:42.958Z,2088.00
2018-07-10T06:20:42.935Z,2124.00
2018-07-10T06:21:42.923Z,2140.00
2018-07-10T06:22:42.910Z,2228.00
2018-07-10T06:23:42.948Z,2460.00
2018-07-10T06:24:42.914Z,2356.00
2018-07-10T06:25:42.907Z,1960.00
2018-07-10T06:26:42.873Z,1908.00
2018-07-10T06:27:42.876Z,2132.00
2018-07-10T06:28:42.851Z,2240.00
2018-07-10T06:29:42.845Z,2324.00
2018-07-10T06:30:42.850Z,2276.00
2018-07-10T06:31:42.810Z,2248.00
2018-07-10T06:32:42.804Z,2016.00
2018-07-10T06:33:42.791Z,1784.00
2018-07-10T06:34:42.807Z,1664.00
2018-07-10T06:35:42.770Z,1528.00
2018-07-10T06:36:42.757Z,1584.00
2018-07-10T06:37:42.746Z,1944.00
2018-07-10T06:38:42.732Z,2232.00
2018-07-10T06:39:42.745Z,2036.00
2018-07-10T06:40:42.712Z,1800.00
2018-07-10T06:41:42.701Z,1908.00
2018-07-10T06:42:42.689Z,2388.00
2018-07-10T06:43:42.680Z,2860.00
2018-07-10T06:44:42.722Z,2916.00
2018-07-10T06:45:42.654Z,2792.00
2018-07-10T06:46:42.651Z,2972.00
2018-07-10T06:47:42.631Z,3424.00
2018-07-10T06:48:42.671Z,3376.00
2018-07-10T06:49:42.624Z,3124.00
2018-07-10T06:50:42.599Z,3092.00
2018-07-10T06:51:42.586Z,2920.00
2018-07-10T06:52:42.871Z,2832.00
2018-07-10T06:53:42.582Z,2992.00
2018-07-10T06:54:42.568Z,2992.00
2018-07-10T06:55:42.539Z,2564.00
2018-07-10T06:56:42.531Z,2324.00
2018-07-10T06:57:42.521Z,2344.00
2018-07-10T06:58:42.509Z,2524.00
2018-07-10T06:59:42.499Z,2648.00
2018-07-10T07:00:42.525Z,2732.00
2018-07-10T07:01:42.482Z,2888.00
2018-07-10T07:02:42.465Z,2688.00
2018-07-10T07:03:42.511Z,2400.00
2018-07-10T07:04:42.442Z,2280.00
2018-07-10T07:05:42.447Z,2600.00
2018-07-10T07:06:42.420Z,2752.00
2018-07-10T07:07:42.426Z,2672.00
2018-07-10T07:08:42.443Z,2752.00
2018-07-10T07:09:42.387Z,2772.00
2018-07-10T07:10:42.396Z,2520.00
2018-07-10T07:11:42.366Z,2300.00
2018-07-10T07:12:42.348Z,2428.00
2018-07-10T07:13:42.337Z,2832.00
2018-07-10T07:14:42.331Z,3092.00
2018-07-10T07:15:42.328Z,3524.00
2018-07-10T07:16:42.306Z,3484.00
2018-07-10T07:17:42.299Z,3380.00
2018-07-10T07:18:42.281Z,3860.00
2018-07-10T07:19:42.270Z,4704.00
2018-07-10T07:20:42.272Z,5008.00
2018-07-10T07:21:42.288Z,4592.00
2018-07-10T07:22:42.269Z,4040.00
2018-07-10T07:23:42.283Z,4248.00
2018-07-10T07:24:42.249Z,4696.00
2018-07-10T07:25:42.214Z,4648.00
2018-07-10T07:26:42.192Z,4604.00
2018-07-10T07:27:42.198Z,4484.00
2018-07-10T07:28:42.183Z,4364.00
2018-07-10T07:29:42.161Z,4568.00
2018-07-10T07:30:42.158Z,4192.00
2018-07-10T07:31:42.133Z,4128.00
2018-07-10T07:32:42.132Z,4264.00
2018-07-10T07:33:42.121Z,4040.00
2018-07-10T07:34:42.122Z,3632.00
2018-07-10T07:35:42.118Z,3800.00
2018-07-10T07:36:42.078Z,3928.00
2018-07-10T07:37:42.073Z,3704.00
2018-07-10T07:38:42.097Z,3876.00
2018-07-10T07:39:42.046Z,4120.00
2018-07-10T07:40:42.044Z,4456.00
2018-07-10T07:41:42.036Z,4768.00
2018-07-10T07:42:42.012Z,5084.00
2018-07-10T07:43:42.069Z,5380.00
2018-07-10T07:44:41.992Z,5452.00
2018-07-10T07:45:41.996Z,5656.00
2018-07-10T07:46:41.966Z,5984.00
2018-07-10T07:47:41.980Z,5796.00
2018-07-10T07:48:42.047Z,5748.00
2018-07-10T07:49:41.971Z,6388.00
2018-07-10T07:50:41.954Z,6556.00
2018-07-10T07:51:41.921Z,8248.00
2018-07-10T07:52:41.899Z,9528.00
2018-07-10T07:53:41.889Z,10628.00
2018-07-10T07:54:41.881Z,13348.00
2018-07-10T07:55:41.867Z,18080.00
2018-07-10T07:56:41.869Z,24992.00
2018-07-10T07:57:41.853Z,69984.00
2018-07-10T07:58:41.838Z,97664.00
2018-07-10T07:59:41.855Z,86176.00
2018-07-10T08:00:41.810Z,38752.00
2018-07-10T08:01:41.805Z,28160.00
2018-07-10T08:02:41.801Z,49888.00
2018-07-10T08:03:41.810Z,41920.00
2018-07-10T08:04:41.765Z,23360.00
2018-07-10T08:05:41.758Z,24608.00
2018-07-10T08:06:41.796Z,23168.00
2018-07-10T08:07:41.765Z,26016.00
2018-07-10T08:08:41.718Z,22048.00
2018-07-10T08:09:41.738Z,25120.00
2018-07-10T08:10:41.706Z,81440.00
2018-07-10T08:11:41.755Z,20928.00
2018-07-10T08:12:41.675Z,19296.00
2018-07-10T08:13:41.671Z,19840.00
2018-07-10T08:14:41.657Z,25088.00
2018-07-10T08:15:41.651Z,33184.00
2018-07-10T08:16:41.642Z,42528.00
2018-07-10T08:17:41.622Z,128032.00
2018-07-10T08:18:41.606Z,57632.00
2018-07-10T08:19:41.599Z,46080.00
2018-07-10T08:20:41.587Z,30656.00
2018-07-10T08:21:41.588Z,49216.00
2018-07-10T08:22:41.565Z,93024.00
2018-07-10T08:23:41.549Z,33408.00
2018-07-10T08:24:41.541Z,22400.00
2018-07-10T08:25:41.535Z,55488.00
2018-07-10T08:26:41.559Z,49440.00
2018-07-10T08:27:41.507Z,90112.00
2018-07-10T08:28:41.494Z,28672.00
2018-07-10T08:29:41.486Z,38048.00
2018-07-10T08:30:41.481Z,35904.00
2018-07-10T08:31:41.473Z,71200.00
2018-07-10T08:32:41.454Z,32256.00
2018-07-10T08:33:41.546Z,90176.00
2018-07-10T08:34:41.437Z,65984.00
2018-07-10T08:35:41.419Z,56256.00
2018-07-10T08:36:41.419Z,60928.00
2018-07-10T08:37:41.431Z,44448.00
2018-07-10T08:38:41.384Z,35424.00
2018-07-10T08:39:41.376Z,74592.00
2018-07-10T08:40:41.360Z,57280.00
2018-07-10T08:41:41.363Z,87328.00
2018-07-10T08:42:41.341Z,35488.00
2018-07-10T08:43:41.328Z,50016.00
2018-07-10T08:44:41.338Z,35936.00
2018-07-10T08:45:41.305Z,30944.00
2018-07-10T08:46:41.304Z,31840.00
2018-07-10T08:47:41.285Z,30176.00
2018-07-10T08:48:41.277Z,27424.00
2018-07-10T08:49:41.260Z,28864.00
2018-07-10T08:50:41.297Z,28384.00
2018-07-10T08:51:41.262Z,27776.00
2018-07-10T08:52:41.232Z,36416.00
2018-07-10T08:53:41.219Z,27008.00
2018-07-10T08:54:41.215Z,18912.00
2018-07-10T08:55:41.204Z,18400.00
2018-07-10T08:56:41.199Z,31680.00
2018-07-10T08:57:41.182Z,19392.00
2018-07-10T08:58:41.183Z,18368.00
2018-07-10T08:59:41.158Z,18688.00
2018-07-10T09:00:41.139Z,21088.00
2018-07-10T09:01:41.161Z,33248.00
2018-07-10T09:02:41.136Z,23680.00
2018-07-10T09:03:41.106Z,16192.00
2018-07-10T09:04:41.092Z,13456.00
2018-07-10T09:05:41.081Z,13216.00
2018-07-10T09:06:41.081Z,16224.00
2018-07-10T09:07:41.064Z,16224.00
2018-07-10T09:08:41.139Z,18368.00
2018-07-10T09:09:41.041Z,26464.00
2018-07-10T09:10:41.026Z,21408.00
2018-07-10T09:11:41.048Z,25312.00
2018-07-10T09:12:41.037Z,23264.00
2018-07-10T09:13:40.997Z,21312.00
2018-07-10T09:14:40.986Z,24064.00
2018-07-10T09:15:40.975Z,39808.00
2018-07-10T09:16:40.958Z,42976.00
2018-07-10T09:17:40.967Z,41312.00
2018-07-10T09:18:40.941Z,36736.00
2018-07-10T09:19:40.932Z,25024.00
2018-07-10T09:20:40.914Z,25568.00
2018-07-10T09:21:40.903Z,27552.00
2018-07-10T09:22:40.923Z,18048.00
2018-07-10T09:23:40.893Z,29376.00
2018-07-10T09:24:40.888Z,28768.00
2018-07-10T09:25:40.859Z,18400.00
2018-07-10T09:26:40.849Z,21376.00
2018-07-10T09:27:40.850Z,17376.00
2018-07-10T09:28:40.827Z,57216.00
2018-07-10T09:29:40.847Z,27936.00
2018-07-10T09:30:40.807Z,148736.00
2018-07-10T09:31:40.808Z,27136.00
2018-07-10T09:32:40.826Z,34400.00
2018-07-10T09:33:40.802Z,20960.00
2018-07-10T09:34:40.758Z,23648.00
2018-07-10T09:35:40.750Z,23616.00
2018-07-10T09:36:40.735Z,131328.00
2018-07-10T09:37:40.734Z,109888.00
2018-07-10T09:38:40.714Z,67808.00
2018-07-10T09:39:40.703Z,60672.00
2018-07-10T09:40:40.698Z,25632.00
2018-07-10T09:41:40.682Z,19936.00
2018-07-10T09:42:40.719Z,43968.00
2018-07-10T09:43:40.658Z,92928.00
2018-07-10T09:44:40.649Z,41632.00
2018-07-10T09:45:40.639Z,17056.00
2018-07-10T09:46:40.628Z,15216.00
2018-07-10T09:47:40.626Z,14304.00
2018-07-10T09:48:40.604Z,16544.00
2018-07-10T09:49:40.590Z,131488.00
2018-07-10T09:50:40.579Z,25664.00
2018-07-10T09:51:40.567Z,17824.00
2018-07-10T09:52:40.568Z,22112.00
2018-07-10T09:53:40.553Z,17440.00
2018-07-10T09:54:40.584Z,25984.00
2018-07-10T09:55:40.526Z,39200.00
2018-07-10T09:56:40.512Z,24896.00
2018-07-10T09:57:40.515Z,25632.00
2018-07-10T09:58:40.489Z,40800.00
2018-07-10T09:59:40.478Z,22848.00
2018-07-10T10:00:40.469Z,23424.00
2018-07-10T10:01:40.455Z,26016.00
2018-07-10T10:02:40.460Z,30528.00
2018-07-10T10:03:40.442Z,28000.00
2018-07-10T10:04:40.421Z,33120.00
2018-07-10T10:05:40.412Z,23872.00
2018-07-10T10:06:40.400Z,20960.00
2018-07-10T10:07:40.403Z,17248.00
2018-07-10T10:08:40.380Z,18784.00
2018-07-10T10:09:40.366Z,20096.00
2018-07-10T10:10:40.361Z,24224.00
2018-07-10T10:11:40.351Z,20640.00
2018-07-10T10:12:40.347Z,17504.00
2018-07-10T10:13:40.321Z,18912.00
2018-07-10T10:14:40.310Z,15904.00
2018-07-10T10:15:40.317Z,13132.00
2018-07-10T10:16:40.290Z,10724.00
2018-07-10T10:17:40.295Z,9272.00
2018-07-10T10:18:40.291Z,9648.00
2018-07-10T10:19:40.253Z,10060.00
2018-07-10T10:20:40.300Z,10204.00
2018-07-10T10:21:40.232Z,10436.00
2018-07-10T10:22:40.245Z,9936.00
2018-07-10T10:23:40.207Z,9404.00
2018-07-10T10:24:40.210Z,8848.00
2018-07-10T10:25:40.204Z,8440.00
2018-07-10T10:26:40.176Z,7848.00
2018-07-10T10:27:40.187Z,6976.00
2018-07-10T10:28:40.153Z,6452.00
2018-07-10T10:29:40.145Z,5680.00
2018-07-10T10:30:40.133Z,5372.00
2018-07-10T10:31:40.123Z,5932.00
2018-07-10T10:32:40.110Z,7432.00
2018-07-10T10:33:40.108Z,9064.00
2018-07-10T10:34:40.086Z,8928.00
2018-07-10T10:35:40.133Z,8608.00
2018-07-10T10:36:40.068Z,8424.00
2018-07-10T10:37:40.054Z,7848.00
2018-07-10T10:38:40.056Z,7632.00
2018-07-10T10:39:40.029Z,7684.00
2018-07-10T10:40:40.022Z,7328.00
2018-07-10T10:41:40.009Z,7692.00
2018-07-10T10:42:39.997Z,7960.00
2018-07-10T10:43:39.996Z,8344.00
2018-07-10T10:44:39.982Z,9528.00
2018-07-10T10:45:39.963Z,10584.00
2018-07-10T10:46:39.952Z,10564.00
2018-07-10T10:47:39.939Z,9884.00
2018-07-10T10:48:39.963Z,9228.00
2018-07-10T10:49:39.941Z,9544.00
2018-07-10T10:50:39.911Z,10376.00
2018-07-10T10:51:39.904Z,11152.00
2018-07-10T10:52:39.887Z,11812.00
2018-07-10T10:53:39.936Z,12300.00
2018-07-10T10:54:39.868Z,13100.00
2018-07-10T10:55:39.851Z,13800.00
2018-07-10T10:56:39.842Z,14208.00
2018-07-10T10:57:39.831Z,14780.00
2018-07-10T10:58:39.860Z,16128.00
2018-07-10T10:59:39.808Z,16864.00
2018-07-10T11:00:39.802Z,18240.00
2018-07-10T11:01:39.788Z,18944.00
2018-07-10T11:02:39.875Z,20800.00
2018-07-10T11:03:39.777Z,23200.00
2018-07-10T11:04:39.752Z,24800.00
2018-07-10T11:05:39.747Z,24320.00
2018-07-10T11:06:39.730Z,23840.00
2018-07-10T11:07:39.717Z,21984.00
2018-07-10T11:08:39.719Z,21568.00
2018-07-10T11:09:39.710Z,21344.00
2018-07-10T11:10:39.696Z,21376.00
2018-07-10T11:11:39.672Z,21248.00
2018-07-10T11:12:39.661Z,21088.00
2018-07-10T11:13:39.661Z,21408.00
2018-07-10T11:14:39.644Z,21888.00
2018-07-10T11:15:39.638Z,22304.00
2018-07-10T11:16:39.614Z,22048.00
2018-07-10T11:17:39.605Z,21728.00
2018-07-10T11:18:39.607Z,19072.00
2018-07-10T11:19:39.584Z,19296.00
2018-07-10T11:20:39.576Z,18080.00
2018-07-10T11:21:39.565Z,18656.00
2018-07-10T11:22:39.548Z,19520.00
2018-07-10T11:23:39.563Z,19200.00
2018-07-10T11:24:39.530Z,19712.00
2018-07-10T11:25:39.518Z,18976.00
2018-07-10T11:26:39.512Z,14780.00
2018-07-10T11:27:39.513Z,13832.00
2018-07-10T11:28:39.488Z,12376.00
2018-07-10T11:29:39.489Z,9656.00
2018-07-10T11:30:39.463Z,7188.00
2018-07-10T11:31:39.448Z,6324.00
2018-07-10T11:32:39.439Z,6696.00
2018-07-10T11:33:39.430Z,6788.00
2018-07-10T11:34:39.432Z,6284.00
2018-07-10T11:35:39.407Z,6084.00
2018-07-10T11:36:39.395Z,5848.00
2018-07-10T11:37:39.385Z,6052.00
2018-07-10T11:38:39.385Z,6676.00
2018-07-10T11:39:39.392Z,7232.00
2018-07-10T11:40:39.350Z,8140.00
2018-07-10T11:41:39.337Z,8784.00
2018-07-10T11:42:39.328Z,10012.00
2018-07-10T11:43:39.317Z,9752.00
2018-07-10T11:44:39.316Z,9116.00
2018-07-10T11:45:39.357Z,8008.00
2018-07-10T11:46:39.285Z,7048.00
2018-07-10T11:47:39.273Z,7380.00
2018-07-10T11:48:39.260Z,8248.00
2018-07-10T11:49:39.266Z,8804.00
2018-07-10T11:50:39.239Z,9312.00
2018-07-10T11:51:39.249Z,10392.00
2018-07-10T11:52:39.216Z,11188.00
2018-07-10T11:53:39.208Z,11656.00
2018-07-10T11:54:39.204Z,11652.00
2018-07-10T11:55:39.184Z,11248.00
2018-07-10T11:56:39.171Z,11132.00
2018-07-10T11:57:39.161Z,11552.00
2018-07-10T11:58:39.145Z,12184.00
2018-07-10T11:59:39.152Z,12696.00
2018-07-10T12:00:39.124Z,12768.00
2018-07-10T12:01:39.114Z,13132.00
2018-07-10T12:02:39.105Z,13212.00
2018-07-10T12:03:39.095Z,13228.00
2018-07-10T12:04:39.100Z,14000.00
2018-07-10T12:05:39.081Z,14516.00
2018-07-10T12:06:39.063Z,13940.00
2018-07-10T12:07:39.049Z,13304.00
2018-07-10T12:08:39.036Z,12620.00
2018-07-10T12:09:39.039Z,13104.00
2018-07-10T12:10:39.039Z,12720.00
2018-07-10T12:11:39.003Z,12496.00
2018-07-10T12:12:38.996Z,12216.00
2018-07-10T12:13:38.981Z,11752.00
2018-07-10T12:14:38.981Z,11248.00
2018-07-10T12:15:38.958Z,11032.00
2018-07-10T12:16:38.954Z,10888.00
2018-07-10T12:17:38.986Z,10664.00
2018-07-10T12:18:38.926Z,10404.00
2018-07-10T12:19:38.930Z,10184.00
2018-07-10T12:20:38.915Z,9896.00
2018-07-10T12:21:38.891Z,9832.00
2018-07-10T12:22:38.938Z,10488.00
2018-07-10T12:23:38.905Z,11680.00
2018-07-10T12:24:38.868Z,12564.00
2018-07-10T12:25:38.847Z,13440.00
2018-07-10T12:26:38.890Z,13880.00
2018-07-10T12:27:38.824Z,13368.00
2018-07-10T12:28:38.813Z,13276.00
2018-07-10T12:29:38.813Z,13124.00
2018-07-10T12:30:38.798Z,13028.00
2018-07-10T12:31:38.780Z,13068.00
2018-07-10T12:32:38.770Z,12252.00
2018-07-10T12:33:38.758Z,11992.00
2018-07-10T12:34:38.780Z,11640.00
2018-07-10T12:35:38.737Z,11296.00
2018-07-10T12:36:38.728Z,10800.00
2018-07-10T12:37:38.712Z,10360.00
2018-07-10T12:38:38.704Z,9584.00
2018-07-10T12:39:38.709Z,9144.00
2018-07-10T12:40:38.691Z,8652.00
2018-07-10T12:41:38.703Z,8372.00
2018-07-10T12:42:38.657Z,8460.00
2018-07-10T12:43:38.645Z,8748.00
2018-07-10T12:44:38.637Z,8948.00
2018-07-10T12:45:38.672Z,9488.00
2018-07-10T12:46:38.691Z,10412.00
2018-07-10T12:47:38.604Z,10016.00
2018-07-10T12:48:38.590Z,9832.00
2018-07-10T12:49:38.583Z,10148.00
2018-07-10T12:50:38.586Z,10996.00
2018-07-10T12:51:38.560Z,11200.00
2018-07-10T12:52:38.544Z,11416.00
2018-07-10T12:53:38.534Z,11344.00